createdAt,value
2019-04-11T00:01:32.512Z,11.37
2019-04-11T00:06:20.670Z,11.60
2019-04-11T00:11:15.885Z,11.33
2019-04-11T00:16:11.426Z,11.83
2019-04-11T00:21:06.804Z,10.80
2019-04-11T00:26:02.121Z,11.60
2019-04-11T00:30:57.202Z,10.27
2019-04-11T00:35:52.279Z,10.77
2019-04-11T00:40:47.258Z,10.80
2019-04-11T00:45:42.252Z,10.87
2019-04-11T00:50:39.157Z,11.00
2019-04-11T00:55:34.091Z,10.30
2019-04-11T01:00:29.235Z,11.00
2019-04-11T01:05:24.107Z,9.87
2019-04-11T01:10:20.258Z,10.60
2019-04-11T01:15:17.710Z,10.57
2019-04-11T01:20:13.318Z,10.63
2019-04-11T01:25:08.502Z,10.43
2019-04-11T01:30:04.409Z,9.67
2019-04-11T01:34:59.564Z,10.27
2019-04-11T01:39:59.739Z,10.40
2019-04-11T01:44:54.896Z,10.30
2019-04-11T01:49:49.803Z,10.30
2019-04-11T01:54:46.014Z,10.97
2019-04-11T01:59:41.762Z,9.93
2019-04-11T02:04:46.031Z,9.97
2019-04-11T02:09:41.119Z,9.17
2019-04-11T02:14:37.814Z,9.17
2019-04-11T02:19:32.677Z,8.80
2019-04-11T02:24:41.696Z,8.47
2019-04-11T02:29:40.582Z,8.47
2019-04-11T02:34:36.992Z,8.87
2019-04-11T02:39:33.791Z,8.47
2019-04-11T02:44:41.116Z,8.77
2019-04-11T02:49:25.761Z,8.87
2019-04-11T02:54:22.424Z,8.73
2019-04-11T02:59:19.554Z,8.70
2019-04-11T03:04:14.957Z,8.43
2019-04-11T03:09:10.910Z,8.43
2019-04-11T03:14:07.471Z,8.87
2019-04-11T03:19:18.443Z,9.17
2019-04-11T03:24:00.687Z,8.57
2019-04-11T03:28:57.373Z,9.17
2019-04-11T03:34:52.005Z,8.60
2019-04-11T03:39:15.374Z,8.80
2019-04-11T03:44:04.258Z,9.00
2019-04-11T03:49:03.454Z,9.13
2019-04-11T03:53:51.616Z,8.63
2019-04-11T03:58:48.232Z,8.47
2019-04-11T04:03:44.761Z,8.83
2019-04-11T04:08:40.241Z,8.97
2019-04-11T04:13:49.719Z,9.20
2019-04-11T04:18:51.975Z,8.43
2019-04-11T04:23:49.655Z,8.20
2019-04-11T04:28:45.318Z,8.07
2019-04-11T04:33:40.411Z,8.20
2019-04-11T04:38:37.651Z,8.53
2019-04-11T04:43:36.215Z,8.37
2019-04-11T04:48:32.185Z,9.67
2019-04-11T04:53:28.320Z,8.03
2019-04-11T04:58:24.841Z,8.10
2019-04-11T05:03:22.024Z,7.33
2019-04-11T05:08:18.552Z,8.77
2019-04-11T05:13:15.700Z,8.70
2019-04-11T05:18:11.501Z,7.63
2019-04-11T05:23:08.403Z,7.57
2019-04-11T05:28:04.392Z,7.87
2019-04-11T05:32:59.778Z,8.20
2019-04-11T05:37:55.746Z,8.10
2019-04-11T05:42:52.662Z,7.93
2019-04-11T05:47:51.707Z,7.90
2019-04-11T05:52:44.844Z,7.67
2019-04-11T05:57:43.055Z,7.93
2019-04-11T06:02:43.712Z,7.93
2019-04-11T06:07:57.810Z,7.40
2019-04-11T06:13:13.700Z,7.40
2019-04-11T06:18:26.187Z,7.40
2019-04-11T06:23:37.216Z,7.87
2019-04-11T06:28:32.622Z,7.13
2019-04-11T06:33:36.503Z,7.83
2019-04-11T06:38:56.757Z,7.30
2019-04-11T06:44:14.365Z,7.30
2019-04-11T06:49:27.194Z,6.93
2019-04-11T06:54:41.028Z,6.87
2019-04-11T06:59:41.010Z,6.60
2019-04-11T07:04:42.467Z,5.17
2019-04-11T07:09:49.280Z,4.90
2019-04-11T07:15:10.172Z,5.10
2019-04-11T07:20:27.265Z,5.03
2019-04-11T07:25:40.736Z,5.00
2019-04-11T07:30:53.938Z,5.03
2019-04-11T07:36:12.185Z,4.97
2019-04-11T07:41:29.767Z,5.00
2019-04-11T07:46:42.994Z,5.00
2019-04-11T07:52:00.266Z,4.80
2019-04-11T07:56:59.654Z,3.70
2019-04-11T08:02:13.555Z,3.97
2019-04-11T08:07:28.110Z,4.03
2019-04-11T08:12:25.854Z,3.90
2019-04-11T08:17:33.286Z,3.97
2019-04-11T08:22:33.103Z,4.07
2019-04-11T08:27:35.694Z,4.53
2019-04-11T08:32:44.253Z,4.87
2019-04-11T08:37:54.378Z,5.60
2019-04-11T08:43:03.011Z,5.57
2019-04-11T08:48:00.589Z,6.27
2019-04-11T08:53:02.664Z,6.27
2019-04-11T08:58:02.582Z,6.43
2019-04-11T09:03:05.177Z,6.20
2019-04-11T09:08:34.391Z,6.37
2019-04-11T09:13:47.292Z,6.20
2019-04-11T09:18:42.200Z,7.53
2019-04-11T09:23:37.654Z,6.70
2019-04-11T09:28:41.875Z,6.17
2019-04-11T09:33:57.526Z,6.43
2019-04-11T09:38:54.833Z,5.97
2019-04-11T09:43:50.534Z,5.70
2019-04-11T09:49:12.063Z,6.00
2019-04-11T09:54:24.410Z,5.60
2019-04-11T09:59:27.421Z,5.13
2019-04-11T10:04:23.388Z,5.10
2019-04-11T10:09:18.336Z,4.90
2019-04-11T10:14:17.869Z,4.63
2019-04-11T10:19:24.731Z,4.67
2019-04-11T10:24:30.562Z,4.90
2019-04-11T10:29:56.770Z,4.30
2019-04-11T10:35:18.496Z,4.10
2019-04-11T10:40:37.590Z,4.60
2019-04-11T10:45:49.336Z,4.57
2019-04-11T10:51:10.931Z,5.50
2019-04-11T10:56:22.546Z,5.33
2019-04-11T11:01:42.511Z,5.40
2019-04-11T11:06:37.941Z,5.20
2019-04-11T11:11:37.218Z,4.83
2019-04-11T11:16:42.855Z,5.00
2019-04-11T11:21:35.619Z,4.80
2019-04-11T11:26:35.703Z,5.60
2019-04-11T11:31:42.759Z,4.97
2019-04-11T11:36:56.675Z,5.23
2019-04-11T11:42:10.376Z,5.23
2019-04-11T11:47:23.722Z,4.90
2019-04-11T11:52:44.010Z,5.03
2019-04-11T11:57:53.111Z,5.17
2019-04-11T12:03:19.214Z,4.93
2019-04-11T12:08:33.145Z,4.60
2019-04-11T12:13:47.498Z,5.07
2019-04-11T12:18:53.395Z,5.13
2019-04-11T12:24:17.562Z,5.60
2019-04-11T12:29:27.246Z,4.67
2019-04-11T12:34:41.017Z,5.50
2019-04-11T12:39:58.360Z,5.40
2019-04-11T12:45:10.964Z,5.30
2019-04-11T12:50:29.221Z,5.27
2019-04-11T12:55:35.756Z,5.10
2019-04-11T13:00:38.279Z,5.40
2019-04-11T13:05:33.237Z,5.00
2019-04-11T13:10:31.117Z,5.30
2019-04-11T13:15:40.740Z,5.27
2019-04-11T13:20:54.580Z,4.90
2019-04-11T13:26:07.276Z,5.03
2019-04-11T13:31:21.135Z,5.40
2019-04-11T13:36:33.905Z,5.40
2019-04-11T13:41:37.929Z,5.20
2019-04-11T13:46:51.839Z,5.23
2019-04-11T13:52:02.010Z,5.30
2019-04-11T13:57:59.101Z,5.30
2019-04-11T14:03:08.678Z,5.33
2019-04-11T14:08:03.562Z,5.20
2019-04-11T14:13:01.022Z,4.73
2019-04-11T14:18:17.197Z,4.80
2019-04-11T14:23:41.950Z,4.67
2019-04-11T14:28:49.571Z,4.60
2019-04-11T14:33:46.698Z,5.07
2019-04-11T14:38:47.557Z,5.40
2019-04-11T14:43:47.941Z,5.77
2019-04-11T14:48:45.204Z,5.73
2019-04-11T14:53:53.633Z,4.57
2019-04-11T14:59:06.270Z,4.93
2019-04-11T15:04:39.248Z,4.93
2019-04-11T15:09:58.942Z,4.47
2019-04-11T15:15:22.019Z,4.73
2019-04-11T15:20:41.087Z,4.70
2019-04-11T15:26:10.012Z,4.50
2019-04-11T15:31:19.049Z,4.60
2019-04-11T15:36:15.806Z,4.57
2019-04-11T15:41:11.088Z,4.50
2019-04-11T15:46:28.275Z,4.40
2019-04-11T15:51:43.000Z,4.60
2019-04-11T15:57:02.752Z,4.70
2019-04-11T16:02:15.311Z,4.73
2019-04-11T16:07:29.102Z,4.57
2019-04-11T16:12:30.783Z,4.90
2019-04-11T16:17:50.642Z,4.93
2019-04-11T16:23:10.395Z,4.83
2019-04-11T16:28:23.525Z,4.20
2019-04-11T16:33:37.404Z,4.30
2019-04-11T16:38:36.539Z,4.50
2019-04-11T16:43:32.121Z,4.43
2019-04-11T16:48:27.312Z,4.30
2019-04-11T16:53:22.188Z,4.80
2019-04-11T16:58:19.647Z,4.40
2019-04-11T17:03:13.754Z,4.57
2019-04-11T17:08:25.701Z,4.30
2019-04-11T17:13:18.791Z,5.30
2019-04-11T17:18:13.740Z,4.90
2019-04-11T17:23:08.634Z,4.50
2019-04-11T17:28:04.068Z,7.37
2019-04-11T17:32:59.019Z,5.50
2019-04-11T17:37:53.958Z,4.57
2019-04-11T17:42:48.771Z,4.97
2019-04-11T17:47:44.861Z,4.57
2019-04-11T17:52:39.898Z,4.90
2019-04-11T17:57:36.835Z,4.17
2019-04-11T18:02:31.765Z,3.73
2019-04-11T18:07:26.624Z,4.73
2019-04-11T18:12:23.799Z,4.60
2019-04-11T18:17:18.299Z,4.73
2019-04-11T18:22:14.189Z,4.70
2019-04-11T18:27:09.258Z,4.60
2019-04-11T18:32:04.201Z,4.63
2019-04-11T18:37:01.638Z,5.10
2019-04-11T18:41:57.642Z,4.90
2019-04-11T18:46:53.134Z,4.63
2019-04-11T18:51:48.208Z,4.60
2019-04-11T18:56:43.118Z,4.63
2019-04-11T19:01:39.831Z,5.23
2019-04-11T19:06:34.691Z,5.10
2019-04-11T19:11:29.616Z,4.90
2019-04-11T19:16:24.539Z,4.70
2019-04-11T19:21:21.070Z,4.70
2019-04-11T19:26:16.157Z,4.70
2019-04-11T19:31:12.442Z,4.60
2019-04-11T19:36:10.069Z,4.40
2019-04-11T19:41:05.790Z,4.43
2019-04-11T19:46:00.754Z,5.03
2019-04-11T19:50:58.637Z,4.30
2019-04-11T19:56:20.110Z,4.67
2019-04-11T20:01:15.143Z,4.00
2019-04-11T20:06:09.911Z,4.43
2019-04-11T20:11:08.958Z,4.77
2019-04-11T20:16:03.704Z,4.60
2019-04-11T20:21:00.241Z,5.40
2019-04-11T20:25:54.979Z,4.47
2019-04-11T20:30:49.715Z,4.50
2019-04-11T20:35:44.515Z,5.00
2019-04-11T20:40:39.260Z,4.63
2019-04-11T20:45:36.192Z,4.67
2019-04-11T20:50:31.079Z,4.87
2019-04-11T20:55:25.914Z,4.87
2019-04-11T21:00:20.740Z,4.77
2019-04-11T21:05:15.649Z,4.87
2019-04-11T21:10:10.628Z,4.40
2019-04-11T21:15:05.942Z,8.00
2019-04-11T21:20:00.675Z,5.17
2019-04-11T21:24:55.423Z,4.47
2019-04-11T21:29:50.155Z,4.70
2019-04-11T21:34:44.894Z,4.83
2019-04-11T21:39:39.620Z,4.57
2019-04-11T21:44:36.731Z,4.53
2019-04-11T21:49:30.900Z,4.10
2019-04-11T21:54:25.626Z,4.50
2019-04-11T21:59:21.188Z,4.80
2019-04-11T22:04:16.205Z,4.53
2019-04-11T22:09:11.301Z,4.57
2019-04-11T22:14:06.105Z,4.40
2019-04-11T22:19:00.849Z,4.20
2019-04-11T22:23:55.683Z,4.70
2019-04-11T22:28:50.412Z,4.80
2019-04-11T22:33:57.465Z,4.67
2019-04-11T22:38:51.973Z,5.17
2019-04-11T22:43:46.992Z,4.63
2019-04-11T22:48:41.779Z,4.27
2019-04-11T22:53:36.520Z,4.73
2019-04-11T22:58:31.251Z,4.43
2019-04-11T23:03:33.272Z,4.73
2019-04-11T23:08:27.995Z,4.67
2019-04-11T23:13:22.727Z,5.17
2019-04-11T23:18:17.448Z,5.13
2019-04-11T23:23:13.420Z,4.73
2019-04-11T23:28:08.818Z,4.93
2019-04-11T23:33:03.549Z,4.40
2019-04-11T23:37:58.278Z,4.90
2019-04-11T23:42:54.631Z,4.80
2019-04-11T23:47:53.172Z,4.70
2019-04-11T23:52:46.118Z,5.03
2019-04-11T23:57:40.857Z,4.70
